Search for airport 
image banner adimage banner adimage banner ad
image banner ad

KJMC - Commodore Center

Located in Sausalito, United States

ICAO - JMC, IATA -

Data provided by Airmate  

General information

Coordinates: N37°52'43" W122°30'46"
Elevation is 2 feet MSL.
Magnetic variation is 16° East
View others Airports in California

Operational data

Special qualification required
Current time UTC:
Current local time:
Weather at : KDVO - Gnoss Field ( 30 km )
METAR: KDVO 260935Z AUTO 00000KT 10SM OVC016 15/12 A3001 RMK AO2
View NOTAMs / SUP AIP / TFR affecting this airport [VIEW]
Communications frequencies: [VIEW]

Runways:

Airport contact information

Address: Sausalito United States

Satellite view of KJMC